Time;durP1;ratioP1;P1;durP2;ratioP2;P2;SDS_P1;SDS_P2;PMS_P1;PMS_P2;Temp;Humidity;BMP_temperature;BMP_pressure;BME280_temperature;BME280_humidity;BME280_pressure;Samples;Min_cycle;Max_cycle;Signal;HPM_P1;HPM_P2
2023/04/13 00:00:20;;;;;;;1.00;1.00;;;18.60;64.90;;;;;;5065697;28;44110;-70
2023/04/13 00:02:52;;;;;;;0.83;0.83;;;18.60;64.90;;;;;;5068641;28;43463;-70
2023/04/13 00:05:21;;;;;;;1.00;1.00;;;18.60;65.10;;;;;;5069205;28;43414;-70
2023/04/13 00:07:49;;;;;;;0.90;0.90;;;18.50;65.10;;;;;;5066832;28;46631;-69
2023/04/13 00:10:19;;;;;;;0.97;0.97;;;18.50;65.30;;;;;;5065382;28;43525;-70
2023/04/13 00:12:48;;;;;;;0.87;0.87;;;18.50;65.30;;;;;;5067288;28;43426;-70
2023/04/13 00:15:19;;;;;;;1.00;1.00;;;18.50;65.20;;;;;;5068045;28;43403;-70
2023/04/13 00:17:47;;;;;;;1.00;1.00;;;18.50;65.30;;;;;;5067167;28;43836;-70
2023/04/13 00:20:16;;;;;;;0.90;0.90;;;18.40;65.30;;;;;;5067441;28;43958;-70
2023/04/13 00:22:44;;;;;;;0.77;0.77;;;18.40;65.40;;;;;;5068276;28;43450;-70
2023/04/13 00:25:13;;;;;;;0.93;0.93;;;18.40;65.60;;;;;;5067826;28;43475;-70
2023/04/13 00:27:42;;;;;;;1.00;1.00;;;18.40;65.50;;;;;;5068059;28;43690;-70
2023/04/13 00:30:12;;;;;;;0.80;0.80;;;18.50;65.20;;;;;;5067452;28;43464;-71
2023/04/13 00:32:42;;;;;;;0.90;0.90;;;18.60;64.90;;;;;;5068702;28;43413;-70
2023/04/13 00:35:10;;;;;;;0.90;0.90;;;18.70;64.70;;;;;;5064388;28;43447;-70
2023/04/13 00:37:38;;;;;;;0.80;0.80;;;18.60;64.60;;;;;;5060897;28;43613;-70
2023/04/13 00:40:08;;;;;;;0.90;0.90;;;18.60;64.90;;;;;;5060682;28;44019;-71
2023/04/13 00:42:36;;;;;;;0.90;0.90;;;18.60;64.70;;;;;;5062392;28;43473;-70
2023/04/13 00:45:05;;;;;;;0.83;0.83;;;18.60;64.80;;;;;;5068274;28;43428;-70
2023/04/13 00:47:34;;;;;;;0.87;0.87;;;18.60;65.00;;;;;;5066429;28;45873;-70
2023/04/13 00:50:03;;;;;;;0.97;0.97;;;18.50;65.00;;;;;;5066836;28;43368;-70
2023/04/13 00:52:33;;;;;;;0.90;0.90;;;18.50;65.20;;;;;;5067789;28;43983;-70
2023/04/13 00:55:02;;;;;;;0.90;0.90;;;18.40;65.20;;;;;;5066625;28;43862;-69
2023/04/13 00:57:31;;;;;;;0.80;0.80;;;18.40;65.10;;;;;;5067787;28;43600;-69
2023/04/13 00:59:59;;;;;;;1.00;1.00;;;18.40;65.20;;;;;;5065503;28;44890;-70
2023/04/13 01:02:27;;;;;;;0.93;0.93;;;18.40;65.30;;;;;;5062693;28;43894;-76
2023/04/13 01:04:57;;;;;;;0.90;0.90;;;18.40;65.40;;;;;;5058616;28;43904;-76
2023/04/13 01:07:27;;;;;;;0.83;0.83;;;18.40;65.60;;;;;;5073010;27;45713;-75
2023/04/13 01:09:59;;;;;;;0.80;0.80;;;18.40;65.40;;;;;;5070762;28;45060;-77
2023/04/13 01:12:30;;;;;;;0.87;0.87;;;18.40;65.40;;;;;;5064771;28;43434;-76
2023/04/13 01:15:01;;;;;;;0.77;0.77;;;18.40;65.40;;;;;;5058911;28;43613;-77
2023/04/13 01:17:31;;;;;;;0.60;0.60;;;18.30;65.40;;;;;;5053306;28;45418;-76
2023/04/13 01:20:10;;;;;;;0.70;0.70;;;18.30;65.50;;;;;;5069687;28;44738;-71
2023/04/13 01:22:40;;;;;;;0.83;0.83;;;18.30;65.60;;;;;;5060816;28;43993;-77
2023/04/13 01:25:21;;;;;;;0.80;0.80;;;18.40;65.40;;;;;;5064777;28;43474;-76
2023/04/13 01:27:52;;;;;;;0.87;0.87;;;18.50;65.00;;;;;;5066213;28;45872;-76
2023/04/13 01:30:22;;;;;;;0.80;0.80;;;18.60;64.60;;;;;;5066376;28;43602;-77
2023/04/13 01:32:54;;;;;;;0.70;0.70;;;18.60;64.60;;;;;;5065314;28;43376;-76
2023/04/13 01:35:24;;;;;;;0.90;0.90;;;18.60;64.90;;;;;;5066343;28;43443;-75
2023/04/13 01:37:53;;;;;;;0.70;0.70;;;18.60;64.80;;;;;;5065998;28;45451;-77
2023/04/13 01:40:25;;;;;;;0.80;0.80;;;18.50;64.60;;;;;;5064991;28;44473;-76
2023/04/13 01:42:57;;;;;;;0.77;0.77;;;18.50;64.80;;;;;;5047658;28;43387;-76
2023/04/13 01:45:30;;;;;;;0.73;0.73;;;18.50;65.00;;;;;;5065934;28;43859;-76
2023/04/13 01:48:05;;;;;;;0.87;0.87;;;18.40;65.10;;;;;;5062861;28;44039;-72
2023/04/13 01:50:58;;;;;;;0.80;0.80;;;18.40;65.30;;;;;;5060201;28;43579;-76
2023/04/13 01:53:52;;;;;;;0.60;0.60;;;18.40;65.10;;;;;;5060371;28;43916;-77
2023/04/13 01:56:21;;;;;;;0.80;0.80;;;18.40;65.30;;;;;;5064504;28;43919;-76
2023/04/13 01:58:58;;;;;;;0.60;0.60;;;18.40;65.30;;;;;;5065526;28;46012;-76
2023/04/13 02:01:28;;;;;;;0.80;0.80;;;18.30;65.40;;;;;;5060796;28;44852;-76
2023/04/13 02:03:58;;;;;;;0.90;0.90;;;18.30;65.50;;;;;;5065460;28;43316;-76
2023/04/13 02:06:30;;;;;;;0.87;0.87;;;18.30;65.30;;;;;;5055763;28;43539;-76
2023/04/13 02:09:00;;;;;;;0.80;0.80;;;18.30;65.30;;;;;;5064116;28;43984;-75
2023/04/13 02:11:28;;;;;;;0.77;0.77;;;18.30;65.30;;;;;;5064240;28;45486;-76
2023/04/13 02:13:57;;;;;;;0.60;0.60;;;18.30;65.40;;;;;;5064367;28;43351;-75
2023/04/13 02:16:27;;;;;;;0.80;0.80;;;18.30;65.50;;;;;;5064833;28;43479;-76
2023/04/13 02:18:57;;;;;;;0.80;0.80;;;18.40;65.60;;;;;;5062522;28;44042;-76
2023/04/13 02:21:25;;;;;;;0.83;0.83;;;18.50;65.30;;;;;;5063187;28;43827;-76
2023/04/13 02:23:53;;;;;;;0.70;0.70;;;18.60;64.90;;;;;;5065414;28;43439;-76
2023/04/13 02:26:24;;;;;;;0.70;0.70;;;18.60;64.50;;;;;;5077026;27;43471;-77
2023/04/13 02:28:52;;;;;;;0.90;0.90;;;18.60;64.40;;;;;;5064707;28;45805;-76
2023/04/13 02:31:22;;;;;;;0.63;0.63;;;18.60;64.60;;;;;;5063920;28;43505;-76
2023/04/13 02:33:50;;;;;;;0.80;0.80;;;18.60;64.60;;;;;;5066782;28;43450;-77
2023/04/13 02:36:19;;;;;;;0.63;0.63;;;18.60;64.50;;;;;;5065818;28;43584;-77
2023/04/13 02:38:53;;;;;;;0.70;0.70;;;18.60;64.70;;;;;;5058509;28;44757;-77
2023/04/13 02:41:28;;;;;;;0.83;0.83;;;18.50;64.80;;;;;;5063254;28;43977;-76
2023/04/13 02:43:57;;;;;;;0.70;0.70;;;18.50;64.90;;;;;;5065496;28;43411;-76
2023/04/13 02:46:30;;;;;;;0.83;0.83;;;18.40;65.10;;;;;;5065221;28;43632;-76
2023/04/13 02:49:14;;;;;;;0.80;0.80;;;18.40;65.00;;;;;;5064802;28;44998;-77
2023/04/13 02:52:00;;;;;;;0.80;0.80;;;18.40;65.00;;;;;;5062384;28;43533;-76
2023/04/13 02:54:45;;;;;;;0.63;0.63;;;18.40;65.10;;;;;;5063672;28;43920;-76
2023/04/13 02:57:13;;;;;;;0.70;0.70;;;18.40;65.20;;;;;;5065099;28;43502;-77
2023/04/13 02:59:42;;;;;;;0.70;0.70;;;18.30;65.30;;;;;;5063737;28;44129;-77
2023/04/13 03:02:13;;;;;;;0.70;0.70;;;18.30;65.30;;;;;;5058942;28;43804;-77
2023/04/13 03:04:42;;;;;;;0.43;0.43;;;18.40;65.20;;;;;;5064716;28;43433;-77
2023/04/13 03:07:13;;;;;;;0.70;0.70;;;18.30;65.30;;;;;;5054377;28;43503;-77
2023/04/13 03:09:46;;;;;;;0.70;0.70;;;18.30;65.30;;;;;;5064277;28;43951;-76
2023/04/13 03:12:15;;;;;;;0.87;0.87;;;18.30;65.40;;;;;;5063509;28;43649;-77
2023/04/13 03:14:45;;;;;;;0.80;0.80;;;18.30;65.50;;;;;;5064725;28;44019;-76
2023/04/13 03:17:15;;;;;;;0.80;0.80;;;18.40;65.40;;;;;;5064957;28;43427;-76
2023/04/13 03:19:48;;;;;;;0.60;0.60;;;18.50;65.10;;;;;;5056617;28;45771;-77
2023/04/13 03:22:19;;;;;;;0.60;0.60;;;18.60;64.60;;;;;;5063356;28;44054;-77
2023/04/13 03:24:47;;;;;;;0.60;0.60;;;18.60;64.30;;;;;;5065630;28;43296;-77
2023/04/13 03:27:27;;;;;;;0.70;0.70;;;18.60;64.50;;;;;;5064753;28;43561;-76
2023/04/13 03:29:55;;;;;;;0.70;0.70;;;18.60;64.70;;;;;;5064609;28;45511;-77
2023/04/13 03:32:24;;;;;;;0.87;0.77;;;18.50;64.50;;;;;;5062464;28;43427;-76
2023/04/13 03:34:58;;;;;;;0.70;0.70;;;18.50;64.50;;;;;;5064866;28;43374;-75
2023/04/13 03:37:28;;;;;;;0.70;0.70;;;18.50;64.60;;;;;;5064880;28;43476;-76
2023/04/13 03:40:04;;;;;;;0.63;0.63;;;18.40;64.80;;;;;;5070219;28;45732;-75
2023/04/13 03:42:40;;;;;;;0.70;0.70;;;18.40;65.00;;;;;;5063998;28;43527;-77
2023/04/13 03:45:11;;;;;;;0.80;0.80;;;18.40;65.00;;;;;;5049141;28;44029;-76
2023/04/13 03:47:42;;;;;;;0.70;0.70;;;18.40;64.80;;;;;;5060864;28;43394;-76
2023/04/13 03:50:11;;;;;;;0.80;0.80;;;18.40;64.90;;;;;;5062950;28;45414;-76
2023/04/13 03:52:39;;;;;;;0.70;0.70;;;18.40;65.00;;;;;;5066402;28;43788;-76
2023/04/13 03:55:09;;;;;;;0.80;0.80;;;18.30;65.00;;;;;;5062260;28;43774;-76
2023/04/13 03:57:39;;;;;;;0.80;0.80;;;18.30;65.20;;;;;;5061820;28;44250;-76
2023/04/13 04:00:12;;;;;;;0.70;0.70;;;18.30;65.00;;;;;;5062931;28;45566;-77
2023/04/13 04:02:46;;;;;;;0.80;0.80;;;18.40;65.00;;;;;;5058411;28;44836;-76
2023/04/13 04:05:23;;;;;;;0.80;0.80;;;18.30;65.00;;;;;;5063864;28;43947;-76
2023/04/13 04:07:59;;;;;;;0.87;0.87;;;18.30;65.10;;;;;;5064278;28;43612;-76
2023/04/13 04:10:28;;;;;;;1.13;1.00;;;18.30;65.30;;;;;;5067677;28;45846;-76
2023/04/13 04:12:58;;;;;;;1.00;1.00;;;18.30;65.30;;;;;;5066877;28;43495;-76
2023/04/13 04:15:27;;;;;;;1.07;1.07;;;18.40;65.00;;;;;;5066464;28;43524;-76
2023/04/13 04:18:02;;;;;;;0.83;0.83;;;18.50;64.60;;;;;;5058170;28;43456;-76
2023/04/13 04:20:31;;;;;;;1.10;1.10;;;18.60;64.30;;;;;;5062876;28;45719;-77
2023/04/13 04:23:03;;;;;;;1.27;1.20;;;18.60;64.20;;;;;;5066704;28;44937;-76
2023/04/13 04:25:40;;;;;;;4.67;1.43;;;18.50;64.40;;;;;;5055723;28;43447;-77
2023/04/13 04:28:08;;;;;;;2.30;1.27;;;18.50;64.30;;;;;;5066860;28;43499;-76
2023/04/13 04:30:36;;;;;;;3.13;1.70;;;18.50;64.00;;;;;;5051741;28;45611;-76
2023/04/13 04:33:07;;;;;;;1.90;1.30;;;18.50;64.20;;;;;;5067952;28;43447;-76
2023/04/13 04:35:48;;;;;;;2.37;1.60;;;18.40;64.30;;;;;;5062372;28;43937;-76
2023/04/13 04:38:18;;;;;;;3.00;1.80;;;18.40;64.40;;;;;;5065162;28;43422;-76
2023/04/13 04:40:46;;;;;;;2.27;1.87;;;18.40;64.70;;;;;;5065681;28;45623;-76
2023/04/13 04:43:15;;;;;;;8.63;2.47;;;18.40;64.10;;;;;;5064836;28;44870;-76
2023/04/13 04:45:50;;;;;;;1.70;1.60;;;18.40;64.50;;;;;;5065432;28;43490;-70
2023/04/13 04:48:23;;;;;;;1.50;1.40;;;18.30;64.60;;;;;;5059160;28;43574;-71
2023/04/13 04:50:54;;;;;;;3.67;2.30;;;18.30;64.80;;;;;;5063306;28;44055;-70
2023/04/13 04:53:27;;;;;;;3.90;2.20;;;18.30;64.70;;;;;;5066770;28;44810;-70
2023/04/13 04:55:57;;;;;;;2.87;2.03;;;18.30;64.60;;;;;;5066942;28;43956;-70
2023/04/13 04:58:37;;;;;;;4.10;1.93;;;18.40;64.50;;;;;;5066782;28;43530;-70
2023/04/13 05:01:07;;;;;;;2.10;1.90;;;18.50;64.30;;;;;;5047953;28;46900;-70
2023/04/13 05:03:36;;;;;;;2.40;1.60;;;18.50;64.00;;;;;;5066121;28;45577;-71
2023/04/13 05:06:19;;;;;;;3.27;1.80;;;18.50;64.80;;;;;;5065809;28;44073;-71
2023/04/13 05:08:47;;;;;;;2.37;1.90;;;18.40;64.30;;;;;;5066817;28;44138;-70
2023/04/13 05:11:15;;;;;;;3.47;2.17;;;18.40;64.40;;;;;;5066226;28;45906;-70
2023/04/13 05:13:43;;;;;;;2.40;1.87;;;18.40;64.30;;;;;;5066261;28;43382;-69
2023/04/13 05:16:16;;;;;;;1.73;1.63;;;18.40;64.40;;;;;;5066155;28;43845;-70
2023/04/13 05:18:46;;;;;;;2.67;1.80;;;18.40;64.50;;;;;;5066355;28;43443;-70
2023/04/13 05:21:32;;;;;;;1.60;1.50;;;18.40;64.70;;;;;;5063310;28;43624;-71
2023/04/13 05:24:01;;;;;;;2.73;1.80;;;18.30;64.80;;;;;;5066185;28;43342;-70
2023/04/13 05:26:30;;;;;;;2.90;2.37;;;18.40;64.70;;;;;;5067798;28;43471;-70
2023/04/13 05:29:03;;;;;;;1.57;1.47;;;18.40;64.80;;;;;;5066211;28;43657;-70
2023/04/13 05:31:35;;;;;;;2.63;1.70;;;18.40;64.80;;;;;;5065929;28;45689;-71
2023/04/13 05:34:05;;;;;;;1.73;1.57;;;18.30;64.90;;;;;;5050597;28;43837;-71
2023/04/13 05:36:33;;;;;;;1.67;1.57;;;18.30;65.00;;;;;;5059672;28;43402;-71
2023/04/13 05:39:06;;;;;;;2.37;1.77;;;18.30;65.00;;;;;;5064991;28;43546;-70
2023/04/13 05:41:34;;;;;;;1.37;1.30;;;18.30;64.80;;;;;;5065881;28;45345;-70
2023/04/13 05:44:02;;;;;;;1.77;1.50;;;18.30;65.60;;;;;;5065454;28;43407;-70
2023/04/13 05:46:33;;;;;;;1.70;1.60;;;18.30;65.00;;;;;;5065688;28;43881;-70
2023/04/13 05:49:06;;;;;;;1.80;1.70;;;18.30;65.10;;;;;;5068906;28;44514;-70
2023/04/13 05:51:34;;;;;;;1.93;1.83;;;18.30;65.30;;;;;;5065470;28;45714;-71
2023/04/13 05:54:02;;;;;;;1.90;1.70;;;18.40;65.20;;;;;;5065617;28;45777;-71
2023/04/13 05:56:33;;;;;;;1.60;1.50;;;18.50;65.60;;;;;;5067874;28;43428;-70
2023/04/13 05:59:02;;;;;;;1.47;1.37;;;18.50;64.40;;;;;;5065620;28;43576;-71
2023/04/13 06:01:30;;;;;;;2.60;1.83;;;18.60;64.30;;;;;;5065148;28;43946;-71
2023/04/13 06:03:59;;;;;;;1.80;1.70;;;18.50;64.30;;;;;;5067299;28;43491;-70
2023/04/13 06:06:29;;;;;;;1.60;1.50;;;18.50;64.60;;;;;;5067250;28;43415;-70
2023/04/13 06:08:57;;;;;;;1.50;1.40;;;18.50;64.40;;;;;;5067667;28;43437;-70
2023/04/13 06:11:26;;;;;;;1.57;1.50;;;18.50;64.40;;;;;;5065365;28;45687;-70
2023/04/13 06:13:54;;;;;;;1.40;1.30;;;18.40;64.50;;;;;;5057615;28;44926;-70
2023/04/13 06:16:25;;;;;;;1.70;1.50;;;18.40;64.70;;;;;;5068349;28;43413;-71
2023/04/13 06:18:54;;;;;;;1.60;1.50;;;18.40;64.90;;;;;;5065535;28;43633;-71
2023/04/13 06:21:26;;;;;;;1.80;1.40;;;18.30;65.00;;;;;;5065006;28;45380;-70
2023/04/13 06:23:55;;;;;;;1.50;1.40;;;18.30;64.90;;;;;;5048971;28;45043;-70
2023/04/13 06:26:32;;;;;;;1.20;1.20;;;18.30;65.00;;;;;;5051671;28;43467;-71
2023/04/13 06:29:01;;;;;;;1.63;1.60;;;18.30;65.00;;;;;;5059919;28;43570;-71
2023/04/13 06:31:36;;;;;;;1.57;1.47;;;18.30;65.10;;;;;;5058529;28;43993;-71
2023/04/13 06:34:10;;;;;;;1.50;1.40;;;18.30;65.40;;;;;;5059398;28;44062;-71
2023/04/13 06:36:39;;;;;;;1.60;1.50;;;18.40;65.20;;;;;;5065300;28;43378;-71
2023/04/13 06:39:10;;;;;;;1.53;1.50;;;18.40;64.80;;;;;;5065301;28;43562;-70
2023/04/13 06:41:40;;;;;;;1.30;1.30;;;18.50;64.60;;;;;;5065104;28;43739;-71
2023/04/13 06:44:20;;;;;;;1.67;1.57;;;18.40;64.60;;;;;;5064704;28;45002;-71
2023/04/13 06:46:53;;;;;;;1.70;1.60;;;18.40;64.80;;;;;;5064669;28;43512;-70
2023/04/13 06:49:23;;;;;;;1.70;1.60;;;18.40;64.90;;;;;;5065347;28;44003;-70
2023/04/13 06:51:51;;;;;;;1.57;1.50;;;18.40;64.80;;;;;;5052046;28;44159;-70
2023/04/13 06:54:20;;;;;;;1.43;1.33;;;18.40;64.90;;;;;;5064848;28;44950;-70
2023/04/13 06:56:55;;;;;;;1.37;1.37;;;18.40;65.80;;;;;;5065226;28;43976;-71
2023/04/13 06:59:23;;;;;;;1.30;1.30;;;18.30;65.10;;;;;;5072351;28;43398;-70
2023/04/13 07:01:52;;;;;;;1.50;1.50;;;18.30;65.30;;;;;;5064505;28;45733;-70
2023/04/13 07:04:20;;;;;;;1.30;1.30;;;18.30;65.20;;;;;;5064508;28;43471;-71
2023/04/13 07:06:49;;;;;;;1.47;1.47;;;18.30;65.30;;;;;;5063784;28;43450;-71
2023/04/13 07:09:17;;;;;;;1.50;1.40;;;18.30;65.30;;;;;;5052250;28;43639;-70
2023/04/13 07:11:46;;;;;;;1.27;1.27;;;18.30;65.30;;;;;;5068322;28;43917;-70
2023/04/13 07:14:16;;;;;;;1.40;1.30;;;18.30;65.40;;;;;;5064802;28;43372;-71
2023/04/13 07:16:45;;;;;;;1.40;1.27;;;18.30;65.50;;;;;;5057595;28;43971;-70
2023/04/13 07:19:14;;;;;;;1.30;1.30;;;18.30;65.20;;;;;;5046085;28;43583;-71
2023/04/13 07:21:42;;;;;;;1.40;1.40;;;18.40;64.80;;;;;;5064309;28;46083;-70
2023/04/13 07:24:10;;;;;;;1.20;1.20;;;18.50;64.60;;;;;;5065824;28;44018;-69
2023/04/13 07:26:42;;;;;;;1.40;1.40;;;18.40;64.70;;;;;;5047855;28;43401;-71
2023/04/13 07:29:15;;;;;;;1.67;1.57;;;18.40;64.90;;;;;;5058329;28;44112;-70
2023/04/13 07:31:49;;;;;;;1.37;1.30;;;18.40;64.80;;;;;;5064389;28;44086;-70
2023/04/13 07:34:17;;;;;;;1.10;1.10;;;18.40;64.80;;;;;;5053148;28;43914;-71
2023/04/13 07:36:47;;;;;;;1.40;1.40;;;18.40;64.90;;;;;;5064350;28;43434;-71
2023/04/13 07:39:19;;;;;;;1.30;1.30;;;18.40;65.10;;;;;;5060244;28;43419;-70
2023/04/13 07:41:48;;;;;;;1.90;1.37;;;18.30;65.10;;;;;;5065563;28;44011;-70
2023/04/13 07:44:25;;;;;;;1.30;1.30;;;18.30;65.40;;;;;;5067790;28;43492;-70
2023/04/13 07:46:54;;;;;;;1.23;1.20;;;18.30;65.20;;;;;;5067843;28;43374;-70
2023/04/13 07:49:24;;;;;;;0.90;0.90;;;18.30;65.20;;;;;;5070772;28;43525;-70
2023/04/13 07:51:54;;;;;;;1.30;1.30;;;18.30;65.30;;;;;;5055972;28;43988;-70
2023/04/13 07:54:26;;;;;;;1.00;1.00;;;18.30;65.40;;;;;;5060623;28;44702;-70
2023/04/13 07:56:57;;;;;;;1.10;1.10;;;18.20;65.30;;;;;;5067501;28;43473;-70
2023/04/13 07:59:29;;;;;;;1.10;1.10;;;18.20;65.50;;;;;;5057563;28;44502;-70
2023/04/13 08:01:58;;;;;;;1.40;1.30;;;18.30;65.30;;;;;;5053108;28;44067;-70
2023/04/13 08:04:30;;;;;;;1.10;1.10;;;18.40;65.00;;;;;;5060848;28;43414;-71
2023/04/13 08:07:03;;;;;;;1.23;1.23;;;18.40;64.80;;;;;;5061496;28;43496;-71
2023/04/13 08:09:34;;;;;;;1.37;1.30;;;18.40;64.80;;;;;;5069046;28;43435;-70
2023/04/13 08:12:03;;;;;;;1.30;1.30;;;18.40;65.00;;;;;;5067210;28;43862;-70
2023/04/13 08:14:33;;;;;;;1.20;1.20;;;18.40;65.10;;;;;;5067254;28;43523;-70
2023/04/13 08:17:03;;;;;;;1.30;1.20;;;18.30;65.00;;;;;;5067024;28;43422;-70
2023/04/13 08:19:32;;;;;;;1.30;1.30;;;18.30;65.10;;;;;;5067412;28;43427;-70
2023/04/13 08:22:01;;;;;;;1.60;1.50;;;18.30;65.20;;;;;;5068348;28;45897;-70
2023/04/13 08:24:29;;;;;;;1.10;1.10;;;18.30;65.30;;;;;;5067367;28;44714;-70
2023/04/13 08:26:58;;;;;;;2.30;1.40;;;18.20;65.50;;;;;;5058118;28;43463;-70
2023/04/13 08:29:26;;;;;;;1.20;1.20;;;18.30;65.40;;;;;;5067645;28;43574;-70
2023/04/13 08:31:56;;;;;;;1.10;1.10;;;18.20;65.30;;;;;;5068264;28;43745;-70
2023/04/13 08:34:26;;;;;;;1.23;1.23;;;18.20;65.40;;;;;;5066927;28;43483;-70
2023/04/13 08:36:54;;;;;;;1.20;1.20;;;18.20;65.40;;;;;;5054762;28;44066;-70
2023/04/13 08:39:26;;;;;;;1.27;1.27;;;18.20;65.40;;;;;;5067443;28;43371;-70
2023/04/13 08:41:55;;;;;;;1.03;1.03;;;18.20;65.70;;;;;;5067190;28;46006;-70
2023/04/13 08:44:27;;;;;;;1.30;1.30;;;18.20;65.40;;;;;;5067086;28;43492;-70
2023/04/13 08:46:56;;;;;;;1.10;1.10;;;18.20;65.40;;;;;;5067224;28;44078;-70
2023/04/13 08:49:28;;;;;;;1.23;1.20;;;18.20;65.40;;;;;;5057588;28;43955;-70
2023/04/13 08:52:10;;;;;;;1.10;1.10;;;18.20;65.40;;;;;;5066270;28;45882;-70
2023/04/13 08:54:40;;;;;;;1.20;1.20;;;18.20;65.60;;;;;;5060440;28;44793;-70
2023/04/13 08:57:16;;;;;;;1.20;1.20;;;18.20;65.60;;;;;;5066862;28;43565;-69
2023/04/13 08:59:44;;;;;;;1.10;1.10;;;18.30;65.40;;;;;;5066382;28;43797;-70
2023/04/13 09:02:14;;;;;;;1.00;1.00;;;18.40;65.00;;;;;;5065903;28;45888;-70
2023/04/13 09:04:52;;;;;;;1.30;1.30;;;18.50;64.70;;;;;;5066518;28;44916;-70
2023/04/13 09:07:25;;;;;;;1.10;1.10;;;18.50;64.60;;;;;;5066381;28;43412;-70
2023/04/13 09:09:57;;;;;;;1.50;1.50;;;18.50;64.80;;;;;;5063837;28;43515;-70
2023/04/13 09:12:27;;;;;;;1.07;1.07;;;18.40;64.90;;;;;;5067973;28;43937;-70
2023/04/13 09:14:55;;;;;;;1.07;1.07;;;18.40;64.80;;;;;;5066610;28;44753;-70
2023/04/13 09:17:27;;;;;;;1.00;1.00;;;18.40;64.90;;;;;;5066576;28;43466;-70
2023/04/13 09:19:57;;;;;;;1.13;1.13;;;18.30;65.00;;;;;;5066537;28;43553;-70
2023/04/13 09:22:25;;;;;;;1.37;1.37;;;18.30;65.20;;;;;;5050080;28;45599;-71
2023/04/13 09:24:53;;;;;;;1.20;1.13;;;18.30;65.50;;;;;;5066772;28;43454;-70
2023/04/13 09:27:22;;;;;;;1.33;1.23;;;18.30;65.40;;;;;;5065294;28;43949;-70
2023/04/13 09:29:52;;;;;;;1.50;1.40;;;18.20;65.30;;;;;;5068121;28;43360;-70
2023/04/13 09:32:21;;;;;;;1.00;1.00;;;18.20;65.40;;;;;;5070950;28;43689;-70
2023/04/13 09:35:03;;;;;;;1.33;1.23;;;18.20;65.40;;;;;;5068019;27;43791;-70
2023/04/13 09:37:34;;;;;;;0.93;0.93;;;18.20;65.60;;;;;;5053422;28;44000;-71
2023/04/13 09:40:10;;;;;;;1.13;1.13;;;18.20;65.80;;;;;;5066175;28;43621;-70
2023/04/13 09:42:39;;;;;;;1.03;1.03;;;18.20;65.60;;;;;;5063605;28;43802;-68
2023/04/13 09:45:07;;;;;;;1.10;1.10;;;18.30;65.30;;;;;;5067318;28;43351;-70
2023/04/13 09:47:36;;;;;;;1.20;1.20;;;18.40;64.90;;;;;;5066251;28;43392;-70
2023/04/13 09:50:16;;;;;;;0.97;0.97;;;18.40;64.80;;;;;;5067277;28;43665;-70
2023/04/13 09:52:45;;;;;;;1.20;1.20;;;18.40;65.10;;;;;;5065676;28;46258;-70
2023/04/13 09:55:17;;;;;;;1.47;1.47;;;18.40;65.20;;;;;;5067053;28;44054;-70
2023/04/13 09:57:47;;;;;;;1.00;1.00;;;18.30;65.00;;;;;;5067311;28;43452;-70
2023/04/13 10:00:19;;;;;;;1.20;1.20;;;18.30;65.00;;;;;;5047509;28;43638;-70
2023/04/13 10:02:48;;;;;;;1.13;1.13;;;18.30;65.20;;;;;;5066539;28;43875;-70
2023/04/13 10:05:18;;;;;;;0.97;0.97;;;18.30;65.40;;;;;;5066015;28;43405;-70
2023/04/13 10:07:47;;;;;;;1.00;1.00;;;18.20;65.50;;;;;;5065291;28;43416;-70
2023/04/13 10:10:18;;;;;;;0.97;0.97;;;18.20;65.30;;;;;;5060888;28;43537;-70
2023/04/13 10:12:53;;;;;;;1.10;1.10;;;18.20;65.30;;;;;;5060753;28;43935;-70
2023/04/13 10:15:30;;;;;;;1.13;1.13;;;18.20;65.40;;;;;;5055231;28;45141;-70
2023/04/13 10:18:04;;;;;;;1.30;1.30;;;18.20;65.50;;;;;;5061512;28;43995;-70
2023/04/13 10:20:35;;;;;;;1.57;1.47;;;18.20;65.60;;;;;;5065660;28;43579;-71
2023/04/13 10:23:04;;;;;;;1.07;1.07;;;18.20;65.70;;;;;;5065197;28;46014;-70
2023/04/13 10:25:32;;;;;;;1.10;1.10;;;18.20;65.40;;;;;;5065538;28;45241;-70
2023/04/13 10:28:03;;;;;;;1.00;1.00;;;18.20;65.50;;;;;;5064331;28;43304;-71
2023/04/13 10:30:31;;;;;;;1.03;1.03;;;18.20;65.60;;;;;;5066806;28;43410;-70
2023/04/13 10:33:04;;;;;;;0.93;0.93;;;18.20;65.70;;;;;;5065353;28;45862;-71
2023/04/13 10:35:36;;;;;;;1.10;1.10;;;18.10;65.70;;;;;;5059954;28;43454;-71
2023/04/13 10:38:07;;;;;;;1.20;1.20;;;18.20;65.90;;;;;;5066289;28;43442;-70
2023/04/13 10:40:44;;;;;;;1.20;1.20;;;18.20;65.60;;;;;;5066964;28;43449;-71
2023/04/13 10:43:12;;;;;;;1.10;1.10;;;18.30;65.30;;;;;;5063497;28;43867;-71
2023/04/13 10:45:40;;;;;;;1.00;1.00;;;18.40;65.00;;;;;;5066267;28;43439;-70
2023/04/13 10:48:21;;;;;;;1.17;1.17;;;18.40;64.90;;;;;;5066376;28;43489;-70
2023/04/13 10:51:00;;;;;;;1.00;1.00;;;18.30;65.00;;;;;;5064934;28;43574;-70
2023/04/13 10:53:29;;;;;;;1.10;1.10;;;18.30;65.20;;;;;;5063849;28;44024;-71
2023/04/13 10:55:58;;;;;;;1.30;1.30;;;18.30;65.10;;;;;;5064709;28;45305;-70
2023/04/13 10:58:26;;;;;;;1.07;1.07;;;18.30;65.20;;;;;;5066386;28;44138;-70
2023/04/13 11:00:58;;;;;;;1.20;1.20;;;18.30;65.30;;;;;;5065291;28;44048;-70
2023/04/13 11:03:27;;;;;;;1.07;1.07;;;18.20;65.30;;;;;;5066103;28;43985;-70
2023/04/13 11:06:00;;;;;;;1.47;1.37;;;18.20;65.60;;;;;;5061501;28;43439;-70
2023/04/13 11:08:28;;;;;;;1.07;1.07;;;18.20;65.40;;;;;;5066079;28;43434;-70
2023/04/13 11:10:57;;;;;;;1.10;1.10;;;18.20;65.40;;;;;;5066635;28;44091;-70
2023/04/13 11:13:25;;;;;;;1.00;1.00;;;18.20;65.50;;;;;;5065178;28;45516;-71
2023/04/13 11:16:01;;;;;;;1.00;1.00;;;18.20;65.60;;;;;;5048192;28;45052;-71
2023/04/13 11:18:29;;;;;;;1.27;1.20;;;18.20;65.70;;;;;;5069134;28;43392;-71
2023/04/13 11:20:58;;;;;;;1.47;1.43;;;18.20;65.80;;;;;;5069924;28;44007;-70
2023/04/13 11:23:26;;;;;;;1.10;1.10;;;18.30;65.60;;;;;;5069882;28;43610;-71
2023/04/13 11:25:56;;;;;;;1.13;1.13;;;18.40;65.20;;;;;;5069347;28;43444;-70
2023/04/13 11:28:25;;;;;;;1.10;1.10;;;18.40;64.90;;;;;;5069845;28;43388;-70
2023/04/13 11:30:54;;;;;;;0.90;0.90;;;18.40;64.80;;;;;;5068187;28;43577;-71
2023/04/13 11:33:26;;;;;;;1.17;1.17;;;18.40;65.00;;;;;;5068971;28;43865;-71
2023/04/13 11:35:54;;;;;;;1.20;1.20;;;18.30;65.10;;;;;;5069541;28;43459;-70
2023/04/13 11:38:24;;;;;;;1.10;1.10;;;18.30;65.00;;;;;;5069084;28;43491;-71
2023/04/13 11:40:52;;;;;;;1.00;1.00;;;18.30;65.10;;;;;;5083962;27;43501;-70
2023/04/13 11:43:28;;;;;;;1.17;1.17;;;18.30;65.30;;;;;;5069375;28;43695;-70
2023/04/13 11:45:56;;;;;;;1.20;1.20;;;18.30;65.40;;;;;;5056482;28;44706;-70
2023/04/13 11:48:25;;;;;;;1.00;1.00;;;18.20;65.50;;;;;;5068995;28;43430;-70
2023/04/13 11:50:52;;;;;;;1.13;1.13;;;18.20;65.40;;;;;;5069141;28;44209;-70
2023/04/13 11:53:20;;;;;;;1.00;1.00;;;18.30;65.60;;;;;;5067522;28;45646;-70
2023/04/13 11:55:50;;;;;;;1.30;1.30;;;18.20;65.50;;;;;;5067417;28;44727;-71
2023/04/13 11:58:21;;;;;;;1.60;1.50;;;18.20;65.60;;;;;;5068829;28;43566;-70
2023/04/13 12:00:48;;;;;;;1.37;1.37;;;18.20;65.70;;;;;;5066944;28;43495;-70
2023/04/13 12:03:17;;;;;;;1.13;1.13;;;18.20;65.80;;;;;;5068501;28;44016;-70
2023/04/13 12:05:48;;;;;;;1.10;1.10;;;18.20;65.70;;;;;;5067340;28;45016;-70
2023/04/13 12:08:23;;;;;;;1.10;1.10;;;18.20;65.70;;;;;;5068644;28;43763;-70
2023/04/13 12:10:58;;;;;;;1.20;1.20;;;18.20;65.70;;;;;;5069317;28;43494;-70
2023/04/13 12:13:48;;;;;;;1.07;1.07;;;18.20;65.70;;;;;;5065163;28;43832;-69
2023/04/13 12:16:35;;;;;;;1.27;1.27;;;18.20;65.80;;;;;;5068527;28;43450;-71
2023/04/13 12:19:23;;;;;;;1.33;1.33;;;18.20;65.90;;;;;;5068510;28;43954;-70
2023/04/13 12:21:55;;;;;;;1.30;1.30;;;18.20;65.60;;;;;;5067785;28;43592;-70
2023/04/13 12:24:31;;;;;;;1.20;1.20;;;18.30;65.30;;;;;;5066967;28;45781;-70
2023/04/13 12:27:03;;;;;;;1.30;1.30;;;18.40;64.90;;;;;;5065860;28;44394;-71
2023/04/13 12:29:37;;;;;;;1.20;1.20;;;18.40;64.80;;;;;;5066952;28;43493;-71
2023/04/13 12:32:10;;;;;;;1.50;1.50;;;18.40;65.00;;;;;;5068828;28;43976;-71
2023/04/13 12:34:41;;;;;;;1.30;1.20;;;18.40;65.10;;;;;;5068569;28;43926;-70
2023/04/13 12:37:10;;;;;;;1.10;1.10;;;18.40;65.00;;;;;;5070704;28;44712;-71
2023/04/13 12:39:38;;;;;;;1.10;1.10;;;18.40;65.10;;;;;;5068428;28;43450;-71
2023/04/13 12:42:07;;;;;;;1.10;1.10;;;18.30;65.20;;;;;;5068854;28;43479;-70
2023/04/13 12:44:35;;;;;;;1.30;1.30;;;18.30;65.30;;;;;;5068286;28;43862;-71
2023/04/13 12:47:04;;;;;;;1.47;1.40;;;18.20;65.50;;;;;;5068100;28;43499;-70
2023/04/13 12:49:32;;;;;;;1.10;1.10;;;18.20;65.40;;;;;;5068290;28;43457;-71
2023/04/13 12:52:00;;;;;;;1.00;1.00;;;18.20;65.40;;;;;;5068467;28;43526;-70
2023/04/13 12:54:29;;;;;;;1.30;1.30;;;18.20;65.40;;;;;;5068113;28;43945;-70
2023/04/13 12:56:58;;;;;;;1.33;1.33;;;18.20;65.60;;;;;;5068722;28;43353;-70
2023/04/13 12:59:27;;;;;;;1.30;1.30;;;18.20;65.70;;;;;;5068078;28;43379;-69
2023/04/13 13:01:57;;;;;;;1.40;1.40;;;18.20;65.90;;;;;;5066549;28;43490;-70
2023/04/13 13:04:28;;;;;;;1.20;1.20;;;18.20;65.70;;;;;;5062338;28;45727;-70
2023/04/13 13:06:56;;;;;;;1.20;1.20;;;18.20;65.80;;;;;;5062667;28;43556;-70